KTBR/TBR METAR and TAF weather

Enter ICAO airport designator
Station Type Date Time Source
KTBR METAR 2020/01/21 09:15 UTC NOAA

KTBR 210915Z AUTO 02004KT 10SM CLR M01/M05 A3033 RMK AO2 T10141050


Station Type Date Time Source
KTBR Decoded METAR 2020/01/21 09:15 UTC NOAA

Statesboro, Statesboro-Bulloch County Airport, GA, United States (KTBR) 32-28-59N 081-44-14W
Jan 21, 2020 - 04:15 AM EST / 2020.01.21 0915 UTC
Wind: from the NNE (020 degrees) at 5 MPH (4 KT):0
Visibility: 10 mile(s):0
Sky conditions: clear
Temperature: 29.5 F (-1.4 C)
Windchill: 24 F (-4 C):1
Dew Point: 23.0 F (-5.0 C)
Relative Humidity: 76%
Pressure (altimeter): 30.33 in. Hg (1027 hPa)
ob: KTBR 210915Z AUTO 02004KT 10SM CLR M01/M05 A3033 RMK AO2 T10141050
cycle: 9

Station Type Date Time Source
KTBR TAF UTC NOAA

Error!

Example: see airport list